sensor_id;sensor_type;location;lat;lon;timestamp;temperature;humidity
50758;DHT22;36732;47.980;11.652;2022-07-10T00:00:37;22.40;50.60
50758;DHT22;36732;47.980;11.652;2022-07-10T00:03:05;22.40;50.60
50758;DHT22;36732;47.980;11.652;2022-07-10T00:05:31;22.30;50.60
50758;DHT22;36732;47.980;11.652;2022-07-10T00:07:57;22.40;50.70
50758;DHT22;36732;47.980;11.652;2022-07-10T00:10:24;22.30;50.50
50758;DHT22;36732;47.980;11.652;2022-07-10T00:12:51;22.40;50.60
50758;DHT22;36732;47.980;11.652;2022-07-10T00:15:18;22.30;50.60
50758;DHT22;36732;47.980;11.652;2022-07-10T00:17:44;22.40;50.50
50758;DHT22;36732;47.980;11.652;2022-07-10T00:20:11;22.30;50.40
50758;DHT22;36732;47.980;11.652;2022-07-10T00:22:38;22.30;50.40
50758;DHT22;36732;47.980;11.652;2022-07-10T00:25:04;22.30;50.50
50758;DHT22;36732;47.980;11.652;2022-07-10T00:27:31;22.30;50.50
50758;DHT22;36732;47.980;11.652;2022-07-10T00:29:57;22.30;50.50
50758;DHT22;36732;47.980;11.652;2022-07-10T00:32:23;22.30;50.50
50758;DHT22;36732;47.980;11.652;2022-07-10T00:34:49;22.30;50.50
50758;DHT22;36732;47.980;11.652;2022-07-10T00:37:15;22.30;50.60
50758;DHT22;36732;47.980;11.652;2022-07-10T00:39:41;22.30;50.50
50758;DHT22;36732;47.980;11.652;2022-07-10T00:42:10;22.20;50.60
50758;DHT22;36732;47.980;11.652;2022-07-10T00:44:40;22.30;50.70
50758;DHT22;36732;47.980;11.652;2022-07-10T00:47:08;22.20;50.60
50758;DHT22;36732;47.980;11.652;2022-07-10T00:49:35;22.20;50.60
50758;DHT22;36732;47.980;11.652;2022-07-10T00:52:06;22.20;50.50
50758;DHT22;36732;47.980;11.652;2022-07-10T00:54:34;22.20;50.60
50758;DHT22;36732;47.980;11.652;2022-07-10T00:57:03;22.20;50.50
50758;DHT22;36732;47.980;11.652;2022-07-10T00:59:30;22.20;50.70
50758;DHT22;36732;47.980;11.652;2022-07-10T01:01:57;22.20;51.00
50758;DHT22;36732;47.980;11.652;2022-07-10T01:04:22;22.20;51.20
50758;DHT22;36732;47.980;11.652;2022-07-10T01:06:49;22.20;51.30
50758;DHT22;36732;47.980;11.652;2022-07-10T01:09:15;22.20;51.60
50758;DHT22;36732;47.980;11.652;2022-07-10T01:11:41;22.30;52.10
50758;DHT22;36732;47.980;11.652;2022-07-10T01:14:07;22.20;52.20
50758;DHT22;36732;47.980;11.652;2022-07-10T01:16:34;22.30;52.40
50758;DHT22;36732;47.980;11.652;2022-07-10T01:18:59;22.20;52.80
50758;DHT22;36732;47.980;11.652;2022-07-10T01:21:27;22.20;53.00
50758;DHT22;36732;47.980;11.652;2022-07-10T01:23:53;22.20;53.20
50758;DHT22;36732;47.980;11.652;2022-07-10T01:26:20;22.20;53.30
50758;DHT22;36732;47.980;11.652;2022-07-10T01:28:51;22.20;53.40
50758;DHT22;36732;47.980;11.652;2022-07-10T01:31:18;22.10;53.70
50758;DHT22;36732;47.980;11.652;2022-07-10T01:33:47;22.10;53.60
50758;DHT22;36732;47.980;11.652;2022-07-10T01:36:13;22.10;53.70
50758;DHT22;36732;47.980;11.652;2022-07-10T01:38:42;22.10;53.80
50758;DHT22;36732;47.980;11.652;2022-07-10T01:41:08;22.10;54.10
50758;DHT22;36732;47.980;11.652;2022-07-10T01:43:37;22.10;53.90
50758;DHT22;36732;47.980;11.652;2022-07-10T01:46:07;22.00;54.60
50758;DHT22;36732;47.980;11.652;2022-07-10T01:48:37;22.00;54.20
50758;DHT22;36732;47.980;11.652;2022-07-10T01:51:04;22.00;54.30
50758;DHT22;36732;47.980;11.652;2022-07-10T01:53:30;22.00;54.50
50758;DHT22;36732;47.980;11.652;2022-07-10T01:55:56;21.90;54.90
50758;DHT22;36732;47.980;11.652;2022-07-10T01:58:22;21.90;54.90
50758;DHT22;36732;47.980;11.652;2022-07-10T02:00:48;21.90;55.00
50758;DHT22;36732;47.980;11.652;2022-07-10T02:03:14;21.80;55.20
50758;DHT22;36732;47.980;11.652;2022-07-10T02:05:58;21.80;55.30
50758;DHT22;36732;47.980;11.652;2022-07-10T02:08:24;21.80;55.40
50758;DHT22;36732;47.980;11.652;2022-07-10T02:10:50;21.80;55.50
50758;DHT22;36732;47.980;11.652;2022-07-10T02:13:16;21.70;55.40
50758;DHT22;36732;47.980;11.652;2022-07-10T02:15:48;21.70;55.60
50758;DHT22;36732;47.980;11.652;2022-07-10T02:18:14;21.70;55.80
50758;DHT22;36732;47.980;11.652;2022-07-10T02:20:40;21.70;56.00
50758;DHT22;36732;47.980;11.652;2022-07-10T02:23:05;21.60;56.10
50758;DHT22;36732;47.980;11.652;2022-07-10T02:25:33;21.60;56.20
50758;DHT22;36732;47.980;11.652;2022-07-10T02:27:59;21.60;56.40
50758;DHT22;36732;47.980;11.652;2022-07-10T02:30:25;21.50;56.40
50758;DHT22;36732;47.980;11.652;2022-07-10T02:32:51;21.50;56.50
50758;DHT22;36732;47.980;11.652;2022-07-10T02:35:17;21.50;56.70
50758;DHT22;36732;47.980;11.652;2022-07-10T02:37:43;21.50;56.80
50758;DHT22;36732;47.980;11.652;2022-07-10T02:40:09;21.50;56.90
50758;DHT22;36732;47.980;11.652;2022-07-10T02:42:35;21.50;56.90
50758;DHT22;36732;47.980;11.652;2022-07-10T02:45:00;21.50;57.00
50758;DHT22;36732;47.980;11.652;2022-07-10T02:47:26;21.40;57.00
50758;DHT22;36732;47.980;11.652;2022-07-10T02:49:52;21.40;57.20
50758;DHT22;36732;47.980;11.652;2022-07-10T02:52:18;21.40;57.20
50758;DHT22;36732;47.980;11.652;2022-07-10T02:54:43;21.40;57.30
50758;DHT22;36732;47.980;11.652;2022-07-10T02:57:09;21.40;57.40
50758;DHT22;36732;47.980;11.652;2022-07-10T02:59:35;21.30;57.40
50758;DHT22;36732;47.980;11.652;2022-07-10T03:02:01;21.30;57.40
50758;DHT22;36732;47.980;11.652;2022-07-10T03:04:27;21.30;57.50
50758;DHT22;36732;47.980;11.652;2022-07-10T03:06:53;21.30;57.60
50758;DHT22;36732;47.980;11.652;2022-07-10T03:09:18;21.30;57.60
50758;DHT22;36732;47.980;11.652;2022-07-10T03:11:44;21.30;57.70
50758;DHT22;36732;47.980;11.652;2022-07-10T03:14:10;21.30;57.80
50758;DHT22;36732;47.980;11.652;2022-07-10T03:16:36;21.20;57.80
50758;DHT22;36732;47.980;11.652;2022-07-10T03:19:02;21.30;57.90
50758;DHT22;36732;47.980;11.652;2022-07-10T03:21:28;21.20;57.90
50758;DHT22;36732;47.980;11.652;2022-07-10T03:23:55;21.20;58.00
50758;DHT22;36732;47.980;11.652;2022-07-10T03:26:21;21.20;58.20
50758;DHT22;36732;47.980;11.652;2022-07-10T03:28:47;21.20;58.20
50758;DHT22;36732;47.980;11.652;2022-07-10T03:31:13;21.20;58.20
50758;DHT22;36732;47.980;11.652;2022-07-10T03:33:39;21.20;58.20
50758;DHT22;36732;47.980;11.652;2022-07-10T03:36:05;21.20;58.30
50758;DHT22;36732;47.980;11.652;2022-07-10T03:38:31;21.20;58.50
50758;DHT22;36732;47.980;11.652;2022-07-10T03:40:57;21.20;58.40
50758;DHT22;36732;47.980;11.652;2022-07-10T03:43:23;21.20;58.40
50758;DHT22;36732;47.980;11.652;2022-07-10T03:45:50;21.20;58.40
50758;DHT22;36732;47.980;11.652;2022-07-10T03:48:16;21.20;58.50
50758;DHT22;36732;47.980;11.652;2022-07-10T03:50:42;21.20;58.70
50758;DHT22;36732;47.980;11.652;2022-07-10T03:53:07;21.10;58.60
50758;DHT22;36732;47.980;11.652;2022-07-10T03:55:33;21.10;58.60
50758;DHT22;36732;47.980;11.652;2022-07-10T03:57:59;21.10;59.30
50758;DHT22;36732;47.980;11.652;2022-07-10T04:00:29;21.10;58.70
50758;DHT22;36732;47.980;11.652;2022-07-10T04:03:00;21.10;58.80
50758;DHT22;36732;47.980;11.652;2022-07-10T04:05:27;21.10;58.90
50758;DHT22;36732;47.980;11.652;2022-07-10T04:07:54;21.10;58.80
50758;DHT22;36732;47.980;11.652;2022-07-10T04:10:22;21.10;58.90
50758;DHT22;36732;47.980;11.652;2022-07-10T04:12:49;21.10;58.90
50758;DHT22;36732;47.980;11.652;2022-07-10T04:15:15;21.10;59.00
50758;DHT22;36732;47.980;11.652;2022-07-10T04:17:41;21.10;59.00
50758;DHT22;36732;47.980;11.652;2022-07-10T04:20:08;21.10;59.00
50758;DHT22;36732;47.980;11.652;2022-07-10T04:22:34;21.10;59.00
50758;DHT22;36732;47.980;11.652;2022-07-10T04:25:00;21.10;58.90
50758;DHT22;36732;47.980;11.652;2022-07-10T04:27:25;21.10;59.00
50758;DHT22;36732;47.980;11.652;2022-07-10T04:29:52;21.00;59.10
50758;DHT22;36732;47.980;11.652;2022-07-10T04:32:18;21.10;59.10
50758;DHT22;36732;47.980;11.652;2022-07-10T04:34:43;21.00;59.00
50758;DHT22;36732;47.980;11.652;2022-07-10T04:37:09;21.10;59.10
50758;DHT22;36732;47.980;11.652;2022-07-10T04:39:36;21.00;59.20
50758;DHT22;36732;47.980;11.652;2022-07-10T04:42:03;21.10;59.40
50758;DHT22;36732;47.980;11.652;2022-07-10T04:44:30;21.10;59.40
50758;DHT22;36732;47.980;11.652;2022-07-10T04:46:56;21.10;59.30
50758;DHT22;36732;47.980;11.652;2022-07-10T04:49:22;21.00;59.30
50758;DHT22;36732;47.980;11.652;2022-07-10T04:51:47;21.10;59.40
50758;DHT22;36732;47.980;11.652;2022-07-10T04:54:13;21.00;59.30
50758;DHT22;36732;47.980;11.652;2022-07-10T04:56:39;21.00;59.40
50758;DHT22;36732;47.980;11.652;2022-07-10T04:59:04;21.00;59.30
50758;DHT22;36732;47.980;11.652;2022-07-10T05:01:30;21.00;59.40
50758;DHT22;36732;47.980;11.652;2022-07-10T05:03:56;21.10;59.70
50758;DHT22;36732;47.980;11.652;2022-07-10T05:06:21;21.00;59.70
50758;DHT22;36732;47.980;11.652;2022-07-10T05:08:47;21.10;59.90
50758;DHT22;36732;47.980;11.652;2022-07-10T05:11:13;21.10;59.80
50758;DHT22;36732;47.980;11.652;2022-07-10T05:13:39;21.10;59.90
50758;DHT22;36732;47.980;11.652;2022-07-10T05:16:05;21.00;59.70
50758;DHT22;36732;47.980;11.652;2022-07-10T05:18:31;21.00;59.80
50758;DHT22;36732;47.980;11.652;2022-07-10T05:20:57;21.00;59.90
50758;DHT22;36732;47.980;11.652;2022-07-10T05:23:22;21.00;60.00
50758;DHT22;36732;47.980;11.652;2022-07-10T05:25:49;21.00;60.00
50758;DHT22;36732;47.980;11.652;2022-07-10T05:28:14;21.00;60.00
50758;DHT22;36732;47.980;11.652;2022-07-10T05:30:41;21.10;60.00
50758;DHT22;36732;47.980;11.652;2022-07-10T05:33:07;21.00;60.00
50758;DHT22;36732;47.980;11.652;2022-07-10T05:35:33;21.10;60.10
50758;DHT22;36732;47.980;11.652;2022-07-10T05:37:59;21.10;60.00
50758;DHT22;36732;47.980;11.652;2022-07-10T05:40:24;21.10;59.80
50758;DHT22;36732;47.980;11.652;2022-07-10T05:42:50;21.10;59.80
50758;DHT22;36732;47.980;11.652;2022-07-10T05:45:17;21.10;59.70
50758;DHT22;36732;47.980;11.652;2022-07-10T05:47:43;21.10;59.70
50758;DHT22;36732;47.980;11.652;2022-07-10T05:50:10;21.10;59.40
50758;DHT22;36732;47.980;11.652;2022-07-10T05:52:37;21.10;59.40
50758;DHT22;36732;47.980;11.652;2022-07-10T05:55:03;21.10;59.40
50758;DHT22;36732;47.980;11.652;2022-07-10T05:57:30;21.10;59.40
50758;DHT22;36732;47.980;11.652;2022-07-10T05:59:59;21.10;59.40
50758;DHT22;36732;47.980;11.652;2022-07-10T06:02:25;21.10;59.70
50758;DHT22;36732;47.980;11.652;2022-07-10T06:04:51;21.20;59.50
50758;DHT22;36732;47.980;11.652;2022-07-10T06:07:17;21.20;59.60
50758;DHT22;36732;47.980;11.652;2022-07-10T06:09:43;21.20;59.50
50758;DHT22;36732;47.980;11.652;2022-07-10T06:12:09;21.20;59.40
50758;DHT22;36732;47.980;11.652;2022-07-10T06:14:35;21.20;59.50
50758;DHT22;36732;47.980;11.652;2022-07-10T06:17:01;21.20;59.40
50758;DHT22;36732;47.980;11.652;2022-07-10T06:19:27;21.30;59.50
50758;DHT22;36732;47.980;11.652;2022-07-10T06:21:52;21.20;59.40
50758;DHT22;36732;47.980;11.652;2022-07-10T06:24:37;21.30;59.50
50758;DHT22;36732;47.980;11.652;2022-07-10T06:27:04;21.30;59.40
50758;DHT22;36732;47.980;11.652;2022-07-10T06:29:30;21.30;59.50
50758;DHT22;36732;47.980;11.652;2022-07-10T06:31:55;21.30;59.40
50758;DHT22;36732;47.980;11.652;2022-07-10T06:34:21;21.30;59.40
50758;DHT22;36732;47.980;11.652;2022-07-10T06:36:47;21.30;59.30
50758;DHT22;36732;47.980;11.652;2022-07-10T06:39:13;21.30;59.30
50758;DHT22;36732;47.980;11.652;2022-07-10T06:41:38;21.30;59.20
50758;DHT22;36732;47.980;11.652;2022-07-10T06:44:05;21.30;59.30
50758;DHT22;36732;47.980;11.652;2022-07-10T06:46:31;21.30;60.00
50758;DHT22;36732;47.980;11.652;2022-07-10T06:48:58;21.30;59.30
50758;DHT22;36732;47.980;11.652;2022-07-10T06:51:24;21.40;59.20
50758;DHT22;36732;47.980;11.652;2022-07-10T06:53:51;21.40;59.00
50758;DHT22;36732;47.980;11.652;2022-07-10T06:56:17;21.40;59.10
50758;DHT22;36732;47.980;11.652;2022-07-10T06:58:43;21.40;59.80
50758;DHT22;36732;47.980;11.652;2022-07-10T07:01:09;21.40;59.00
50758;DHT22;36732;47.980;11.652;2022-07-10T07:03:34;21.40;58.90
50758;DHT22;36732;47.980;11.652;2022-07-10T07:06:00;21.40;59.20
50758;DHT22;36732;47.980;11.652;2022-07-10T07:08:29;21.50;59.00
50758;DHT22;36732;47.980;11.652;2022-07-10T07:10:55;21.40;58.90
50758;DHT22;36732;47.980;11.652;2022-07-10T07:13:20;21.50;58.70
50758;DHT22;36732;47.980;11.652;2022-07-10T07:15:46;21.50;58.50
50758;DHT22;36732;47.980;11.652;2022-07-10T07:18:21;21.50;58.40
50758;DHT22;36732;47.980;11.652;2022-07-10T07:20:57;21.50;58.40
50758;DHT22;36732;47.980;11.652;2022-07-10T07:23:44;21.50;58.50
50758;DHT22;36732;47.980;11.652;2022-07-10T07:26:10;21.50;58.50
50758;DHT22;36732;47.980;11.652;2022-07-10T07:28:35;21.50;58.50
50758;DHT22;36732;47.980;11.652;2022-07-10T07:31:01;21.50;58.20
50758;DHT22;36732;47.980;11.652;2022-07-10T07:33:27;21.50;58.10
50758;DHT22;36732;47.980;11.652;2022-07-10T07:35:53;21.50;58.10
50758;DHT22;36732;47.980;11.652;2022-07-10T07:38:18;21.60;58.10
50758;DHT22;36732;47.980;11.652;2022-07-10T07:40:44;21.60;58.00
50758;DHT22;36732;47.980;11.652;2022-07-10T07:43:10;21.60;57.80
50758;DHT22;36732;47.980;11.652;2022-07-10T07:45:37;21.60;58.00
50758;DHT22;36732;47.980;11.652;2022-07-10T07:48:03;21.60;57.80
50758;DHT22;36732;47.980;11.652;2022-07-10T07:50:33;21.60;57.80
50758;DHT22;36732;47.980;11.652;2022-07-10T07:53:01;21.60;57.80
50758;DHT22;36732;47.980;11.652;2022-07-10T07:55:29;21.60;57.70
50758;DHT22;36732;47.980;11.652;2022-07-10T07:57:56;21.60;57.50
50758;DHT22;36732;47.980;11.652;2022-07-10T08:00:24;21.60;57.60
50758;DHT22;36732;47.980;11.652;2022-07-10T08:02:52;21.60;57.70
50758;DHT22;36732;47.980;11.652;2022-07-10T08:05:19;21.60;57.50
50758;DHT22;36732;47.980;11.652;2022-07-10T08:07:50;21.70;57.50
50758;DHT22;36732;47.980;11.652;2022-07-10T08:10:20;21.70;57.40
50758;DHT22;36732;47.980;11.652;2022-07-10T08:12:47;21.70;57.30
50758;DHT22;36732;47.980;11.652;2022-07-10T08:15:15;21.70;57.30
50758;DHT22;36732;47.980;11.652;2022-07-10T08:17:47;21.70;57.20
50758;DHT22;36732;47.980;11.652;2022-07-10T08:20:16;21.70;57.20
50758;DHT22;36732;47.980;11.652;2022-07-10T08:22:43;21.70;57.40
50758;DHT22;36732;47.980;11.652;2022-07-10T08:25:10;21.70;57.20
50758;DHT22;36732;47.980;11.652;2022-07-10T08:27:36;21.80;57.30
50758;DHT22;36732;47.980;11.652;2022-07-10T08:30:03;21.80;57.00
50758;DHT22;36732;47.980;11.652;2022-07-10T08:32:30;21.80;56.60
50758;DHT22;36732;47.980;11.652;2022-07-10T08:34:56;21.80;56.60
50758;DHT22;36732;47.980;11.652;2022-07-10T08:37:23;21.80;56.60
50758;DHT22;36732;47.980;11.652;2022-07-10T08:39:49;21.80;56.50
50758;DHT22;36732;47.980;11.652;2022-07-10T08:42:15;21.80;56.50
50758;DHT22;36732;47.980;11.652;2022-07-10T08:44:41;21.80;56.20
50758;DHT22;36732;47.980;11.652;2022-07-10T08:47:07;21.90;56.10
50758;DHT22;36732;47.980;11.652;2022-07-10T08:49:33;21.90;55.90
50758;DHT22;36732;47.980;11.652;2022-07-10T08:52:09;21.90;55.90
50758;DHT22;36732;47.980;11.652;2022-07-10T08:54:38;21.90;55.60
50758;DHT22;36732;47.980;11.652;2022-07-10T08:57:05;21.90;55.60
50758;DHT22;36732;47.980;11.652;2022-07-10T08:59:31;21.90;55.20
50758;DHT22;36732;47.980;11.652;2022-07-10T09:01:57;21.90;55.10
50758;DHT22;36732;47.980;11.652;2022-07-10T09:04:25;21.90;54.90
50758;DHT22;36732;47.980;11.652;2022-07-10T09:06:53;21.90;54.70
50758;DHT22;36732;47.980;11.652;2022-07-10T09:09:20;21.90;54.90
50758;DHT22;36732;47.980;11.652;2022-07-10T09:11:46;21.90;54.40
50758;DHT22;36732;47.980;11.652;2022-07-10T09:14:16;21.90;53.90
50758;DHT22;36732;47.980;11.652;2022-07-10T09:16:43;21.90;53.70
50758;DHT22;36732;47.980;11.652;2022-07-10T09:19:14;21.80;54.20
50758;DHT22;36732;47.980;11.652;2022-07-10T09:21:49;21.80;54.40
50758;DHT22;36732;47.980;11.652;2022-07-10T09:24:15;21.80;54.70
50758;DHT22;36732;47.980;11.652;2022-07-10T09:26:58;21.90;54.60
50758;DHT22;36732;47.980;11.652;2022-07-10T09:29:31;21.90;54.30
50758;DHT22;36732;47.980;11.652;2022-07-10T09:32:02;21.90;53.90
50758;DHT22;36732;47.980;11.652;2022-07-10T09:34:45;22.00;53.90
50758;DHT22;36732;47.980;11.652;2022-07-10T09:37:29;22.00;53.70
50758;DHT22;36732;47.980;11.652;2022-07-10T09:39:59;22.00;53.30
50758;DHT22;36732;47.980;11.652;2022-07-10T09:50:27;22.20;52.90
50758;DHT22;36732;47.980;11.652;2022-07-10T09:53:05;22.20;52.10
50758;DHT22;36732;47.980;11.652;2022-07-10T09:55:34;22.20;51.50
50758;DHT22;36732;47.980;11.652;2022-07-10T09:58:05;22.20;51.80
50758;DHT22;36732;47.980;11.652;2022-07-10T10:00:37;22.20;51.80
50758;DHT22;36732;47.980;11.652;2022-07-10T10:03:09;22.20;51.20
50758;DHT22;36732;47.980;11.652;2022-07-10T10:05:41;22.20;51.30
50758;DHT22;36732;47.980;11.652;2022-07-10T10:08:29;22.20;51.20
50758;DHT22;36732;47.980;11.652;2022-07-10T10:10:58;22.20;50.60
50758;DHT22;36732;47.980;11.652;2022-07-10T10:13:26;22.20;51.00
50758;DHT22;36732;47.980;11.652;2022-07-10T10:15:53;22.20;50.70
50758;DHT22;36732;47.980;11.652;2022-07-10T10:18:22;22.30;50.60
50758;DHT22;36732;47.980;11.652;2022-07-10T10:20:50;22.20;50.80
50758;DHT22;36732;47.980;11.652;2022-07-10T10:23:18;22.30;51.00
50758;DHT22;36732;47.980;11.652;2022-07-10T10:25:50;22.20;51.20
50758;DHT22;36732;47.980;11.652;2022-07-10T10:28:23;22.30;51.30
50758;DHT22;36732;47.980;11.652;2022-07-10T10:30:52;22.30;51.50
50758;DHT22;36732;47.980;11.652;2022-07-10T10:36:03;22.30;50.20
50758;DHT22;36732;47.980;11.652;2022-07-10T10:41:38;22.40;49.60
50758;DHT22;36732;47.980;11.652;2022-07-10T10:46:33;22.40;49.10
50758;DHT22;36732;47.980;11.652;2022-07-10T10:49:07;22.40;49.30
50758;DHT22;36732;47.980;11.652;2022-07-10T10:51:56;22.40;49.10
50758;DHT22;36732;47.980;11.652;2022-07-10T10:54:21;22.40;48.80
50758;DHT22;36732;47.980;11.652;2022-07-10T10:57:11;22.40;49.00
50758;DHT22;36732;47.980;11.652;2022-07-10T10:59:53;22.40;49.20
50758;DHT22;36732;47.980;11.652;2022-07-10T11:02:30;22.40;49.60
50758;DHT22;36732;47.980;11.652;2022-07-10T11:07:58;22.50;50.00
50758;DHT22;36732;47.980;11.652;2022-07-10T11:10:32;22.50;49.50
50758;DHT22;36732;47.980;11.652;2022-07-10T11:13:01;22.50;49.40
50758;DHT22;36732;47.980;11.652;2022-07-10T11:15:29;22.50;48.70
50758;DHT22;36732;47.980;11.652;2022-07-10T11:17:56;22.50;49.50
50758;DHT22;36732;47.980;11.652;2022-07-10T11:20:22;22.50;49.30
50758;DHT22;36732;47.980;11.652;2022-07-10T11:25:42;22.50;49.60
50758;DHT22;36732;47.980;11.652;2022-07-10T11:31:21;22.60;50.00
50758;DHT22;36732;47.980;11.652;2022-07-10T11:33:50;22.60;50.10
50758;DHT22;36732;47.980;11.652;2022-07-10T11:36:22;22.60;50.40
50758;DHT22;36732;47.980;11.652;2022-07-10T11:39:03;22.70;49.10
50758;DHT22;36732;47.980;11.652;2022-07-10T11:41:30;22.70;48.80
50758;DHT22;36732;47.980;11.652;2022-07-10T11:44:03;22.70;48.60
50758;DHT22;36732;47.980;11.652;2022-07-10T11:46:34;22.70;48.70
50758;DHT22;36732;47.980;11.652;2022-07-10T11:49:04;22.70;48.20
50758;DHT22;36732;47.980;11.652;2022-07-10T11:51:36;22.70;48.50
50758;DHT22;36732;47.980;11.652;2022-07-10T11:54:10;22.70;48.60
50758;DHT22;36732;47.980;11.652;2022-07-10T11:56:46;22.70;48.20
50758;DHT22;36732;47.980;11.652;2022-07-10T11:59:14;22.70;48.40
50758;DHT22;36732;47.980;11.652;2022-07-10T12:01:43;22.70;48.40
50758;DHT22;36732;47.980;11.652;2022-07-10T12:04:13;22.70;48.20
50758;DHT22;36732;47.980;11.652;2022-07-10T12:06:44;22.70;48.30
50758;DHT22;36732;47.980;11.652;2022-07-10T12:09:19;22.80;48.50
50758;DHT22;36732;47.980;11.652;2022-07-10T12:12:06;22.80;48.00
50758;DHT22;36732;47.980;11.652;2022-07-10T12:14:33;22.80;48.10
50758;DHT22;36732;47.980;11.652;2022-07-10T12:17:00;22.80;48.60
50758;DHT22;36732;47.980;11.652;2022-07-10T12:19:35;22.80;48.70
50758;DHT22;36732;47.980;11.652;2022-07-10T12:22:02;22.90;49.00
50758;DHT22;36732;47.980;11.652;2022-07-10T12:24:30;22.90;48.90
50758;DHT22;36732;47.980;11.652;2022-07-10T12:26:56;22.90;48.40
50758;DHT22;36732;47.980;11.652;2022-07-10T12:29:22;22.90;48.10
50758;DHT22;36732;47.980;11.652;2022-07-10T12:31:54;22.90;47.40
50758;DHT22;36732;47.980;11.652;2022-07-10T12:34:39;23.00;47.70
50758;DHT22;36732;47.980;11.652;2022-07-10T12:37:08;23.00;47.30
50758;DHT22;36732;47.980;11.652;2022-07-10T12:39:46;23.00;48.30
50758;DHT22;36732;47.980;11.652;2022-07-10T12:42:13;23.00;47.80
50758;DHT22;36732;47.980;11.652;2022-07-10T12:44:43;23.00;48.00
50758;DHT22;36732;47.980;11.652;2022-07-10T12:47:22;23.00;46.90
50758;DHT22;36732;47.980;11.652;2022-07-10T12:50:05;23.00;46.90
50758;DHT22;36732;47.980;11.652;2022-07-10T12:52:36;23.00;46.40
50758;DHT22;36732;47.980;11.652;2022-07-10T12:55:17;23.10;46.80
50758;DHT22;36732;47.980;11.652;2022-07-10T13:00:22;23.10;47.00
50758;DHT22;36732;47.980;11.652;2022-07-10T13:02:56;23.10;46.90
50758;DHT22;36732;47.980;11.652;2022-07-10T13:05:40;23.10;46.70
50758;DHT22;36732;47.980;11.652;2022-07-10T13:08:14;23.10;46.70
50758;DHT22;36732;47.980;11.652;2022-07-10T13:10:43;23.10;46.00
50758;DHT22;36732;47.980;11.652;2022-07-10T13:13:09;23.10;46.50
50758;DHT22;36732;47.980;11.652;2022-07-10T13:15:36;23.10;46.00
50758;DHT22;36732;47.980;11.652;2022-07-10T13:18:21;23.10;46.50
50758;DHT22;36732;47.980;11.652;2022-07-10T13:20:49;23.10;46.50
50758;DHT22;36732;47.980;11.652;2022-07-10T13:23:16;23.20;47.10
50758;DHT22;36732;47.980;11.652;2022-07-10T13:25:46;23.20;46.70
50758;DHT22;36732;47.980;11.652;2022-07-10T13:28:12;23.20;46.60
50758;DHT22;36732;47.980;11.652;2022-07-10T13:30:38;23.30;46.70
50758;DHT22;36732;47.980;11.652;2022-07-10T13:33:04;23.30;46.30
50758;DHT22;36732;47.980;11.652;2022-07-10T13:35:31;23.30;45.70
50758;DHT22;36732;47.980;11.652;2022-07-10T13:37:59;23.40;45.40
50758;DHT22;36732;47.980;11.652;2022-07-10T13:40:33;23.40;45.50
50758;DHT22;36732;47.980;11.652;2022-07-10T13:43:00;23.40;44.90
50758;DHT22;36732;47.980;11.652;2022-07-10T13:45:27;23.50;45.10
50758;DHT22;36732;47.980;11.652;2022-07-10T13:48:02;23.50;45.10
50758;DHT22;36732;47.980;11.652;2022-07-10T13:50:29;23.50;45.30
50758;DHT22;36732;47.980;11.652;2022-07-10T13:52:54;23.60;45.10
50758;DHT22;36732;47.980;11.652;2022-07-10T13:55:20;23.60;44.80
50758;DHT22;36732;47.980;11.652;2022-07-10T13:57:46;23.70;45.00
50758;DHT22;36732;47.980;11.652;2022-07-10T14:00:12;23.70;44.90
50758;DHT22;36732;47.980;11.652;2022-07-10T14:02:38;23.70;44.60
50758;DHT22;36732;47.980;11.652;2022-07-10T14:05:05;23.80;44.20
50758;DHT22;36732;47.980;11.652;2022-07-10T14:07:33;23.80;44.40
50758;DHT22;36732;47.980;11.652;2022-07-10T14:09:58;23.80;44.30
50758;DHT22;36732;47.980;11.652;2022-07-10T17:51:09;20.90;46.80
50758;DHT22;36732;47.980;11.652;2022-07-10T17:53:35;20.90;46.40
50758;DHT22;36732;47.980;11.652;2022-07-10T17:56:01;21.00;46.10
50758;DHT22;36732;47.980;11.652;2022-07-10T17:58:26;21.20;45.80
50758;DHT22;36732;47.980;11.652;2022-07-10T18:00:54;21.40;45.10
50758;DHT22;36732;47.980;11.652;2022-07-10T18:03:55;21.60;43.40
50758;DHT22;36732;47.980;11.652;2022-07-10T18:06:20;21.80;44.30
50758;DHT22;36732;47.980;11.652;2022-07-10T18:08:46;22.10;43.70
50758;DHT22;36732;47.980;11.652;2022-07-10T18:11:17;22.20;43.10
50758;DHT22;36732;47.980;11.652;2022-07-10T18:13:45;22.30;42.60
50758;DHT22;36732;47.980;11.652;2022-07-10T18:16:11;22.40;42.60
50758;DHT22;36732;47.980;11.652;2022-07-10T18:18:41;22.60;42.00
50758;DHT22;36732;47.980;11.652;2022-07-10T18:21:09;22.70;41.60
50758;DHT22;36732;47.980;11.652;2022-07-10T18:23:35;22.70;41.40
50758;DHT22;36732;47.980;11.652;2022-07-10T18:26:02;22.80;41.20
50758;DHT22;36732;47.980;11.652;2022-07-10T18:28:29;22.90;41.00
50758;DHT22;36732;47.980;11.652;2022-07-10T18:30:56;23.00;41.00
50758;DHT22;36732;47.980;11.652;2022-07-10T18:33:22;23.00;40.60
50758;DHT22;36732;47.980;11.652;2022-07-10T18:36:07;23.10;40.80
50758;DHT22;36732;47.980;11.652;2022-07-10T18:38:35;23.10;40.50
50758;DHT22;36732;47.980;11.652;2022-07-10T18:41:02;23.10;40.40
50758;DHT22;36732;47.980;11.652;2022-07-10T18:43:29;23.20;40.60
50758;DHT22;36732;47.980;11.652;2022-07-10T18:45:58;23.20;40.50
50758;DHT22;36732;47.980;11.652;2022-07-10T18:48:25;23.20;39.90
50758;DHT22;36732;47.980;11.652;2022-07-10T18:50:51;23.20;40.30
50758;DHT22;36732;47.980;11.652;2022-07-10T18:53:18;23.20;40.30
50758;DHT22;36732;47.980;11.652;2022-07-10T18:55:45;23.20;40.00
50758;DHT22;36732;47.980;11.652;2022-07-10T18:58:11;23.20;40.10
50758;DHT22;36732;47.980;11.652;2022-07-10T19:00:38;23.20;40.20
50758;DHT22;36732;47.980;11.652;2022-07-10T19:03:04;23.20;40.10
50758;DHT22;36732;47.980;11.652;2022-07-10T19:05:31;23.20;40.10
50758;DHT22;36732;47.980;11.652;2022-07-10T19:07:57;23.20;39.80
50758;DHT22;36732;47.980;11.652;2022-07-10T19:10:23;23.20;39.80
50758;DHT22;36732;47.980;11.652;2022-07-10T19:12:48;23.20;39.70
50758;DHT22;36732;47.980;11.652;2022-07-10T19:15:14;23.20;39.80
50758;DHT22;36732;47.980;11.652;2022-07-10T19:17:40;23.20;39.80
50758;DHT22;36732;47.980;11.652;2022-07-10T19:20:08;23.20;39.80
50758;DHT22;36732;47.980;11.652;2022-07-10T19:22:35;23.10;39.50
50758;DHT22;36732;47.980;11.652;2022-07-10T19:25:00;23.10;39.80
50758;DHT22;36732;47.980;11.652;2022-07-10T19:27:26;23.10;39.80